Time;durP1;ratioP1;P1;durP2;ratioP2;P2;SDS_P1;SDS_P2;PMS_P1;PMS_P2;Temp;Humidity;BMP_temperature;BMP_pressure;BME280_temperature;BME280_humidity;BME280_pressure;Samples;Min_cycle;Max_cycle;Signal;HPM_P1;HPM_P2
2023/01/14 00:01:53;;;;;;;2.55;1.27;;;;;;;6.96;79.13;101024.28;5110163;28;20036;-82
2023/01/14 00:04:24;;;;;;;0.30;0.30;;;;;;;6.92;79.17;101011.25;5132089;28;20130;-83
2023/01/14 00:06:54;;;;;;;0.50;0.50;;;;;;;6.94;78.82;101008.66;5126487;28;20039;-82
2023/01/14 00:09:27;;;;;;;0.73;0.73;;;;;;;6.90;79.14;101005.16;5099270;28;20651;-83
2023/01/14 00:11:57;;;;;;;5.10;1.37;;;;;;;6.97;78.89;101010.38;5102245;28;20035;-81
2023/01/14 00:14:30;;;;;;;1.95;1.67;;;;;;;7.01;78.37;101012.06;5108934;28;20351;-83
2023/01/14 00:17:01;;;;;;;0.82;0.82;;;;;;;6.97;78.20;101010.38;5117468;28;20045;-83
2023/01/14 00:19:31;;;;;;;1.40;1.30;;;;;;;6.98;78.26;101012.09;5098462;28;20043;-83
2023/01/14 00:22:01;;;;;;;1.02;1.02;;;;;;;6.94;77.99;101011.25;5113601;28;20485;-82
2023/01/14 00:24:32;;;;;;;0.70;0.70;;;;;;;6.90;78.34;101014.75;5104605;28;20046;-83
2023/01/14 00:27:03;;;;;;;0.57;0.57;;;;;;;6.99;78.10;101013.81;5098542;28;20035;-81
2023/01/14 00:29:34;;;;;;;13.77;3.70;;;;;;;6.97;78.22;101023.41;5097565;28;20046;-83
2023/01/14 00:32:05;;;;;;;0.55;0.55;;;;;;;6.91;78.00;101019.09;5094694;28;20040;-82
2023/01/14 00:34:36;;;;;;;2.72;1.65;;;;;;;6.95;77.82;101026.00;5115475;28;20082;-83
2023/01/14 00:37:07;;;;;;;2.58;1.63;;;;;;;6.88;78.21;101017.38;5095365;28;20180;-81
2023/01/14 00:39:38;;;;;;;0.70;0.70;;;;;;;6.95;77.88;101028.63;5116318;28;20055;-82
2023/01/14 00:42:08;;;;;;;1.05;1.05;;;;;;;6.93;77.60;101030.41;5113028;28;20374;-82
2023/01/14 00:44:39;;;;;;;0.52;0.52;;;;;;;6.89;77.68;101045.19;5111799;28;20039;-82
2023/01/14 00:47:09;;;;;;;0.30;0.30;;;;;;;6.89;77.95;101047.81;5126547;28;20506;-82
2023/01/14 00:49:40;;;;;;;1.30;0.98;;;;;;;6.85;78.39;101042.63;5108399;28;20033;-83
2023/01/14 00:52:10;;;;;;;3.00;1.10;;;;;;;6.88;78.24;101047.81;5105392;28;20351;-81
2023/01/14 00:54:41;;;;;;;0.75;0.75;;;;;;;6.84;78.21;101040.88;5117564;28;20047;-83
2023/01/14 00:57:12;;;;;;;1.20;1.10;;;;;;;6.87;78.05;101041.72;5102772;28;20047;-82
2023/01/14 00:59:43;;;;;;;0.30;0.30;;;;;;;6.82;78.44;101051.31;5098504;29;20031;-83
2023/01/14 01:02:13;;;;;;;3.28;1.38;;;;;;;6.82;78.52;101043.47;5116753;28;20464;-82
2023/01/14 01:04:44;;;;;;;0.50;0.50;;;;;;;6.81;78.36;101033.06;5117993;28;20050;-82
2023/01/14 01:07:14;;;;;;;1.70;1.65;;;;;;;6.76;78.78;101038.31;5107260;28;20046;-82
2023/01/14 01:09:46;;;;;;;0.40;0.40;;;;;;;6.77;78.51;101038.31;5107265;28;20328;-82
2023/01/14 01:12:17;;;;;;;1.40;1.30;;;;;;;6.79;78.49;101040.91;5118269;28;20045;-83
2023/01/14 01:14:47;;;;;;;12.30;1.45;;;;;;;6.85;78.48;101035.66;5117982;28;20524;-82
2023/01/14 01:17:18;;;;;;;4.03;1.95;;;;;;;6.83;78.30;101034.78;5115561;28;20485;-83
2023/01/14 01:19:50;;;;;;;10.13;2.38;;;;;;;6.81;78.94;101036.56;5118065;28;20276;-82
2023/01/14 01:22:21;;;;;;;6.10;2.30;;;;;;;6.83;78.97;101036.53;5113947;28;20450;-83
2023/01/14 01:24:51;;;;;;;4.05;1.10;;;;;;;6.86;78.58;101024.34;5128618;28;20252;-83
2023/01/14 01:27:22;;;;;;;0.52;0.52;;;;;;;6.88;78.52;101024.31;5104871;28;20362;-83
2023/01/14 01:29:53;;;;;;;0.52;0.52;;;;;;;6.89;78.39;101034.78;5098461;29;20398;-83
2023/01/14 01:32:25;;;;;;;0.93;0.93;;;;;;;6.87;78.29;101041.72;5094739;28;20035;-83
2023/01/14 01:34:55;;;;;;;1.35;1.27;;;;;;;6.87;78.92;101057.38;5121867;28;20037;-83
2023/01/14 01:37:27;;;;;;;0.47;0.47;;;;;;;6.88;78.31;101059.13;5121137;28;20043;-82
2023/01/14 01:39:57;;;;;;;0.50;0.50;;;;;;;6.88;78.12;101064.34;5134118;28;20061;-83
2023/01/14 01:42:33;;;;;;;0.45;0.45;;;;;;;6.92;78.50;101062.56;5139199;28;20299;-82
2023/01/14 01:45:14;;;;;;;1.02;1.02;;;;;;;6.89;78.70;101060.84;5106124;28;20042;-83
2023/01/14 01:47:54;;;;;;;0.40;0.40;;;;;;;6.93;78.24;101061.69;5108214;28;20102;-82
2023/01/14 01:50:24;;;;;;;1.25;1.02;;;;;;;6.89;78.44;101060.84;5096681;28;20027;-83
2023/01/14 01:52:55;;;;;;;0.88;0.85;;;;;;;6.91;78.56;101048.66;5119256;28;20042;-83
2023/01/14 01:55:26;;;;;;;3.15;2.03;;;;;;;6.97;78.16;101052.09;5117430;28;20031;-82
2023/01/14 01:57:58;;;;;;;0.30;0.30;;;;;;;6.91;78.72;101053.88;5118471;28;20498;-83
2023/01/14 02:00:28;;;;;;;0.98;0.98;;;;;;;6.90;78.36;101059.94;5118007;28;20027;-81
2023/01/14 02:03:04;;;;;;;0.88;0.88;;;;;;;6.98;78.43;101048.63;5115537;28;20546;-82
2023/01/14 02:05:35;;;;;;;0.45;0.45;;;;;;;6.95;78.24;101059.06;5132510;28;20043;-82
2023/01/14 02:08:06;;;;;;;0.88;0.88;;;;;;;6.92;78.30;101047.78;5106730;28;20094;-83
2023/01/14 02:10:45;;;;;;;1.13;1.13;;;;;;;6.98;77.94;101043.41;5109589;28;20043;-82
2023/01/14 02:13:47;;;;;;;26.52;3.15;;;;;;;6.97;77.64;101033.84;5102435;29;20039;-83
2023/01/14 02:16:33;;;;;;;0.43;0.43;;;;;;;6.90;77.66;101039.09;5101327;28;20517;-81
2023/01/14 02:19:16;;;;;;;0.57;0.57;;;;;;;6.97;77.48;101041.69;5107633;28;20085;-81
2023/01/14 02:22:12;;;;;;;0.95;0.95;;;;;;;6.95;77.67;101036.44;5104460;28;20047;-83
2023/01/14 02:25:04;;;;;;;0.50;0.50;;;;;;;7.02;77.55;101042.50;5097564;28;20047;-82
2023/01/14 02:28:00;;;;;;;0.30;0.30;;;;;;;6.96;77.34;101046.00;5118769;28;20050;-82
2023/01/14 02:30:39;;;;;;;1.73;1.38;;;;;;;6.97;77.32;101052.97;5110913;28;20036;-83
2023/01/14 02:33:16;;;;;;;1.08;0.85;;;;;;;6.97;77.77;101036.47;5105630;28;20035;-82
2023/01/14 02:36:09;;;;;;;3.88;2.33;;;;;;;6.99;77.40;101039.91;5136770;28;20038;-82
2023/01/14 02:38:55;;;;;;;2.25;1.67;;;;;;;7.01;77.20;101040.75;5114660;28;20043;-82
2023/01/14 02:44:34;;;;;;;1.27;1.20;;;;;;;7.11;77.52;101034.59;5132656;28;20068;-83
2023/01/14 02:47:12;;;;;;;0.77;0.77;;;;;;;7.05;77.31;101025.06;5121294;28;20041;-83
2023/01/14 02:49:47;;;;;;;0.40;0.40;;;;;;;6.96;77.42;101019.06;5112090;28;20298;-82
2023/01/14 02:52:19;;;;;;;0.85;0.85;;;;;;;7.01;77.26;101017.28;5131646;28;20043;-82
2023/01/14 02:54:57;;;;;;;0.30;0.30;;;;;;;6.93;77.39;101014.75;5117602;28;20039;-83
2023/01/14 02:57:44;;;;;;;1.27;0.82;;;;;;;6.97;77.30;101005.16;5115241;28;20199;-83
2023/01/14 03:00:44;;;;;;;2.97;0.98;;;;;;;6.98;77.37;100996.44;5120976;28;20035;-83
2023/01/14 03:03:39;;;;;;;0.75;0.75;;;;;;;6.99;77.30;100980.78;5117986;28;20398;-82
2023/01/14 03:06:29;;;;;;;7.90;1.75;;;;;;;7.03;77.43;100979.00;5114839;28;20050;-82
2023/01/14 03:09:08;;;;;;;1.55;1.27;;;;;;;7.05;76.98;100982.47;5116494;28;20347;-83
2023/01/14 03:11:45;;;;;;;0.98;0.98;;;;;;;7.00;76.82;100974.69;5130744;28;20050;-83
2023/01/14 03:14:34;;;;;;;0.50;0.50;;;;;;;6.99;76.95;100970.34;5134376;28;20402;-82
2023/01/14 03:17:13;;;;;;;0.82;0.82;;;;;;;7.03;76.84;100979.84;5115937;28;20035;-82
2023/01/14 03:19:51;;;;;;;0.30;0.30;;;;;;;7.01;77.11;100965.09;5111538;28;20028;-82
2023/01/14 03:22:22;;;;;;;0.30;0.30;;;;;;;6.98;76.75;100959.94;5104583;28;20121;-83
2023/01/14 03:24:57;;;;;;;0.40;0.40;;;;;;;7.11;77.01;100951.09;5100062;28;20126;-83
2023/01/14 03:27:33;;;;;;;0.47;0.47;;;;;;;6.99;76.57;100952.06;5113552;28;20122;-83
2023/01/14 03:30:08;;;;;;;0.70;0.70;;;;;;;7.05;76.29;100945.94;5117031;28;20027;-83
2023/01/14 03:32:58;;;;;;;0.65;0.65;;;;;;;6.99;76.82;100941.63;5118301;28;20046;-83
2023/01/14 03:35:33;;;;;;;1.10;1.10;;;;;;;7.08;76.40;100943.28;5130004;28;20060;-82
2023/01/14 03:38:17;;;;;;;3.70;1.63;;;;;;;7.01;76.63;100944.22;5102297;29;20027;-82
2023/01/14 03:40:51;;;;;;;1.85;1.75;;;;;;;7.01;76.74;100946.84;5110089;28;20039;-83
2023/01/14 03:43:31;;;;;;;0.35;0.35;;;;;;;7.03;76.80;100943.31;5100969;28;20031;-83
2023/01/14 03:46:02;;;;;;;0.60;0.60;;;;;;;6.98;76.92;100939.91;5095679;28;20584;-81
2023/01/14 03:48:33;;;;;;;0.95;0.95;;;;;;;6.97;76.66;100943.38;5118759;28;20047;-82
2023/01/14 03:51:31;;;;;;;3.92;1.42;;;;;;;6.89;76.91;100946.09;5117265;28;20047;-83
2023/01/14 03:54:14;;;;;;;0.93;0.93;;;;;;;6.91;76.22;100941.69;5102005;29;20046;-83
2023/01/14 03:57:10;;;;;;;0.43;0.43;;;;;;;6.84;76.75;100932.19;5099112;29;20047;-82
2023/01/14 03:59:50;;;;;;;1.50;1.40;;;;;;;6.90;76.98;100934.75;5122588;28;20039;-83
2023/01/14 04:02:22;;;;;;;0.30;0.30;;;;;;;6.87;76.94;100926.97;5125435;28;20039;-82
2023/01/14 04:04:54;;;;;;;1.13;1.08;;;;;;;6.89;76.56;100930.44;5126759;28;20028;-81
2023/01/14 04:07:25;;;;;;;0.43;0.43;;;;;;;6.88;76.66;100920.88;5159653;23;20081;-77
2023/01/14 04:09:55;;;;;;;0.80;0.80;;;;;;;6.90;76.31;100920.84;5116926;28;20126;-79
2023/01/14 04:12:26;;;;;;;0.85;0.85;;;;;;;6.89;76.61;100904.34;5132865;28;20035;-80
2023/01/14 04:17:45;;;;;;;2.72;1.67;;;;;;;6.85;76.44;100897.41;5116160;28;20043;-80
2023/01/14 04:20:19;;;;;;;0.60;0.60;;;;;;;6.88;76.29;100901.72;5110582;28;20035;-79
2023/01/14 04:22:49;;;;;;;0.60;0.60;;;;;;;6.89;76.15;100900.84;5104837;28;20563;-80
2023/01/14 04:25:20;;;;;;;0.40;0.40;;;;;;;6.82;76.51;100896.56;5141275;28;20032;-80
2023/01/14 04:27:50;;;;;;;2.15;1.98;;;;;;;6.86;76.49;100893.06;5139952;28;20019;-80
2023/01/14 04:30:21;;;;;;;2.10;1.88;;;;;;;6.90;76.67;100887.78;5139517;28;20024;-78
2023/01/14 04:32:51;;;;;;;0.30;0.30;;;;;;;6.82;76.94;100871.34;5101773;28;20037;-81
2023/01/14 04:35:22;;;;;;;0.63;0.63;;;;;;;6.82;77.01;100870.50;5107751;28;20431;-81
2023/01/14 04:37:54;;;;;;;0.60;0.60;;;;;;;6.85;76.66;100871.31;5126916;28;20059;-80
2023/01/14 04:40:27;;;;;;;0.60;0.60;;;;;;;6.84;77.23;100861.78;5121634;28;20101;-80
2023/01/14 04:42:58;;;;;;;0.85;0.85;;;;;;;6.86;76.76;100851.34;5121077;28;20027;-79
2023/01/14 04:45:28;;;;;;;1.55;1.45;;;;;;;7.03;76.47;100845.94;5101807;28;20050;-79
2023/01/14 04:47:59;;;;;;;1.95;1.85;;;;;;;6.96;76.64;100836.47;5105845;28;20019;-79
2023/01/14 04:50:33;;;;;;;0.30;0.30;;;;;;;6.93;76.88;100842.56;5100214;28;20050;-78
2023/01/14 04:53:05;;;;;;;1.35;1.25;;;;;;;7.04;77.07;100838.09;5099153;28;20027;-78
2023/01/14 04:55:37;;;;;;;0.30;0.30;;;;;;;7.02;76.54;100837.28;5134069;28;20325;-80
2023/01/14 04:58:10;;;;;;;0.57;0.57;;;;;;;6.93;76.39;100838.22;5122164;28;20037;-79
2023/01/14 05:00:41;;;;;;;6.88;1.48;;;;;;;7.00;76.57;100835.53;5135745;28;20639;-80
2023/01/14 05:03:14;;;;;;;0.55;0.55;;;;;;;6.97;76.16;100825.16;5120441;28;20506;-79
2023/01/14 05:05:45;;;;;;;0.60;0.60;;;;;;;7.01;76.39;100826.81;5121931;28;20054;-79
2023/01/14 05:08:16;;;;;;;0.93;0.93;;;;;;;6.92;76.37;100826.03;5104551;29;21418;-79
2023/01/14 05:10:51;;;;;;;0.30;0.30;;;;;;;6.91;75.88;100819.09;5102299;28;20416;-79
2023/01/14 05:13:21;;;;;;;1.33;1.33;;;;;;;6.93;76.15;100817.34;5117922;28;20050;-80
2023/01/14 05:15:58;;;;;;;0.57;0.57;;;;;;;6.87;76.44;100814.81;5106016;28;20055;-78
2023/01/14 05:18:29;;;;;;;0.30;0.30;;;;;;;6.90;76.20;100809.53;5113376;28;20042;-80
2023/01/14 05:20:59;;;;;;;2.83;2.40;;;;;;;6.93;76.04;100811.28;5100870;28;20711;-79
2023/01/14 05:23:30;;;;;;;3.42;0.90;;;;;;;6.96;76.42;100803.41;5137599;28;20062;-79
2023/01/14 05:26:00;;;;;;;0.30;0.30;;;;;;;6.97;75.98;100799.06;5133570;28;20043;-80
2023/01/14 05:28:31;;;;;;;1.60;0.95;;;;;;;6.96;75.67;100795.56;5118625;28;20027;-79
2023/01/14 05:31:02;;;;;;;2.15;1.67;;;;;;;7.00;75.48;100793.78;5103351;28;20765;-80
2023/01/14 05:33:32;;;;;;;0.70;0.70;;;;;;;6.87;75.48;100796.53;5134269;28;20105;-79
2023/01/14 05:36:03;;;;;;;0.30;0.30;;;;;;;6.88;75.81;100790.44;5125950;28;20045;-79
2023/01/14 05:38:34;;;;;;;0.68;0.43;;;;;;;6.91;75.34;100782.56;5119695;28;20296;-77
2023/01/14 05:41:05;;;;;;;2.40;2.20;;;;;;;6.83;75.07;100780.94;5116648;28;20055;-78
2023/01/14 05:46:24;;;;;;;0.30;0.30;;;;;;;6.90;75.07;100764.34;5137710;28;20032;-79
2023/01/14 05:48:55;;;;;;;1.33;1.27;;;;;;;6.96;75.37;100760.81;5125761;28;20050;-79
2023/01/14 05:51:25;;;;;;;1.48;1.38;;;;;;;6.93;75.56;100757.34;5102716;28;20079;-79
2023/01/14 05:53:56;;;;;;;0.70;0.70;;;;;;;6.83;74.95;100742.66;5103346;28;20027;-80
2023/01/14 05:56:26;;;;;;;0.40;0.40;;;;;;;6.87;74.83;100744.38;5135103;28;20349;-80
2023/01/14 05:58:59;;;;;;;0.77;0.77;;;;;;;6.85;74.72;100737.47;5118927;28;20031;-79
2023/01/14 06:07:08;;;;;;;4.72;0.82;;;;;;;6.82;74.86;100725.28;5117062;28;20115;-79
2023/01/14 06:09:39;;;;;;;1.52;1.42;;;;;;;6.92;74.92;100726.06;5118427;28;20519;-80
2023/01/14 06:12:10;;;;;;;1.95;1.75;;;;;;;6.90;74.51;100704.34;5096347;28;20054;-79
2023/01/14 06:14:40;;;;;;;0.43;0.43;;;;;;;6.93;75.37;100697.34;5119236;28;20030;-78
2023/01/14 06:17:12;;;;;;;0.57;0.57;;;;;;;6.97;75.21;100687.72;5125896;28;20407;-80
2023/01/14 06:19:42;;;;;;;1.33;1.27;;;;;;;6.84;74.59;100691.38;5101276;28;20043;-78
2023/01/14 06:22:13;;;;;;;1.00;0.40;;;;;;;6.80;75.08;100687.97;5117538;28;20098;-79
2023/01/14 06:24:43;;;;;;;0.38;0.38;;;;;;;6.86;74.92;100672.22;5120550;28;20082;-78
2023/01/14 06:27:14;;;;;;;11.13;1.17;;;;;;;6.80;74.42;100677.53;5117455;28;20043;-78
2023/01/14 06:29:44;;;;;;;0.52;0.52;;;;;;;6.77;74.61;100670.59;5138018;28;20039;-79
2023/01/14 06:32:15;;;;;;;0.30;0.30;;;;;;;6.86;74.97;100667.00;5093620;28;20039;-79
2023/01/14 06:34:45;;;;;;;30.92;1.65;;;;;;;6.86;74.65;100661.78;5105093;28;20031;-79
2023/01/14 06:37:17;;;;;;;0.95;0.95;;;;;;;6.85;75.11;100659.22;5126951;28;20112;-77
2023/01/14 06:39:47;;;;;;;0.40;0.40;;;;;;;6.78;75.86;100645.38;5105783;28;20433;-79
2023/01/14 06:42:18;;;;;;;0.45;0.45;;;;;;;6.89;75.70;100643.50;5117646;28;20045;-81
2023/01/14 06:44:48;;;;;;;0.47;0.47;;;;;;;7.01;75.88;100641.59;5135359;28;20039;-81
2023/01/14 06:47:19;;;;;;;0.82;0.65;;;;;;;6.89;76.17;100627.84;5109169;28;20035;-79
2023/01/14 06:49:49;;;;;;;1.85;1.75;;;;;;;6.90;76.19;100619.13;5108156;28;20091;-79
2023/01/14 06:52:21;;;;;;;1.38;0.75;;;;;;;6.97;75.96;100622.53;5126340;28;20401;-79
2023/01/14 06:54:55;;;;;;;0.93;0.93;;;;;;;7.00;76.57;100619.00;5128011;28;20034;-81
2023/01/14 06:57:26;;;;;;;1.17;0.90;;;;;;;6.90;75.99;100608.69;5125517;28;20054;-79
2023/01/14 06:59:56;;;;;;;0.98;0.98;;;;;;;6.99;76.19;100594.69;5137707;28;20035;-78
2023/01/14 07:02:27;;;;;;;0.63;0.63;;;;;;;7.02;76.20;100593.75;5118964;28;20032;-80
2023/01/14 07:04:57;;;;;;;3.40;1.13;;;;;;;7.01;76.18;100581.59;5116558;28;20059;-83
2023/01/14 07:07:28;;;;;;;3.92;1.58;;;;;;;6.91;76.79;100583.50;5098691;28;20126;-83
2023/01/14 07:09:58;;;;;;;2.92;1.25;;;;;;;6.88;76.45;100579.19;5117901;28;20093;-83
2023/01/14 07:12:28;;;;;;;0.50;0.50;;;;;;;6.89;76.99;100573.09;5097331;28;20039;-82
2023/01/14 07:14:59;;;;;;;0.75;0.75;;;;;;;6.84;77.68;100577.47;5117858;28;20031;-83
2023/01/14 07:17:29;;;;;;;1.23;1.15;;;;;;;6.76;78.55;100559.34;5112761;28;20035;-83
2023/01/14 07:20:00;;;;;;;3.00;2.03;;;;;;;6.86;78.29;100561.84;5118148;28;20035;-82
2023/01/14 07:22:30;;;;;;;0.35;0.35;;;;;;;6.92;77.67;100559.13;5130559;28;20051;-83
2023/01/14 07:25:01;;;;;;;9.55;1.50;;;;;;;6.86;78.53;100554.84;5109161;28;20039;-82
2023/01/14 07:27:32;;;;;;;0.30;0.30;;;;;;;6.91;78.59;100546.97;5128704;28;20154;-81
2023/01/14 07:30:03;;;;;;;0.30;0.30;;;;;;;6.99;78.25;100534.69;5115519;28;20121;-82
2023/01/14 07:32:34;;;;;;;1.67;1.58;;;;;;;6.97;78.65;100532.97;5112471;28;20043;-82
2023/01/14 07:35:04;;;;;;;0.45;0.45;;;;;;;6.86;79.80;100520.97;5114562;28;20023;-82
2023/01/14 07:37:35;;;;;;;1.13;0.80;;;;;;;6.88;80.36;100521.81;5133572;28;20050;-81
2023/01/14 07:40:06;;;;;;;0.30;0.30;;;;;;;6.98;79.39;100506.00;5102569;28;20035;-82
2023/01/14 07:42:37;;;;;;;3.00;1.65;;;;;;;6.92;80.33;100497.38;5092638;28;20067;-81
2023/01/14 07:45:08;;;;;;;3.55;1.42;;;;;;;6.97;79.63;100486.03;5103310;28;20059;-82
2023/01/14 07:47:42;;;;;;;2.40;1.35;;;;;;;6.98;80.24;100487.75;5098390;28;20062;-80
2023/01/14 07:50:12;;;;;;;2.28;0.93;;;;;;;6.97;80.72;100491.25;5106791;28;20042;-80
2023/01/14 07:52:43;;;;;;;0.30;0.30;;;;;;;7.02;79.89;100492.03;5116380;28;20039;-79
2023/01/14 07:55:13;;;;;;;9.65;3.97;;;;;;;7.05;79.60;100492.84;5097923;28;20492;-79
2023/01/14 07:57:44;;;;;;;10.65;2.80;;;;;;;7.04;80.06;100493.72;5132315;28;20054;-80
2023/01/14 08:00:15;;;;;;;0.73;0.73;;;;;;;7.05;80.46;100478.94;5103791;28;20055;-80
2023/01/14 08:02:47;;;;;;;0.35;0.35;;;;;;;7.06;80.61;100483.28;5102007;28;20050;-80
2023/01/14 08:05:17;;;;;;;1.08;0.73;;;;;;;7.06;80.98;100472.84;5117191;28;20062;-80
2023/01/14 08:07:47;;;;;;;0.45;0.45;;;;;;;7.04;81.06;100466.78;5120819;28;20122;-79
2023/01/14 08:10:18;;;;;;;0.45;0.45;;;;;;;7.03;81.54;100457.22;5116459;28;20042;-80
2023/01/14 08:12:49;;;;;;;0.30;0.30;;;;;;;7.08;81.39;100444.94;5122195;28;20032;-80
2023/01/14 08:15:20;;;;;;;1.00;0.80;;;;;;;7.07;81.39;100433.66;5114927;28;20043;-79
2023/01/14 08:17:50;;;;;;;1.85;0.85;;;;;;;7.07;81.45;100433.66;5104058;28;20276;-81
2023/01/14 08:20:22;;;;;;;0.22;0.22;;;;;;;7.09;81.66;100426.69;5112886;28;20031;-80
2023/01/14 08:22:57;;;;;;;0.50;0.50;;;;;;;7.15;81.15;100425.69;5099065;28;20488;-80
2023/01/14 08:25:28;;;;;;;0.52;0.52;;;;;;;7.11;81.81;100421.44;5100879;28;20035;-80
2023/01/14 08:27:59;;;;;;;0.30;0.30;;;;;;;7.03;82.30;100416.34;5111342;28;20429;-80
2023/01/14 08:30:31;;;;;;;12.10;0.93;;;;;;;7.08;82.51;100414.53;5097743;28;21664;-80
2023/01/14 08:33:02;;;;;;;0.30;0.30;;;;;;;7.11;81.93;100412.75;5120020;28;20089;-80
2023/01/14 08:35:32;;;;;;;0.60;0.60;;;;;;;7.08;82.56;100400.59;5117769;28;20032;-80
2023/01/14 08:38:03;;;;;;;0.30;0.30;;;;;;;7.07;82.18;100391.94;5118633;28;20498;-81
2023/01/14 08:40:33;;;;;;;0.30;0.30;;;;;;;7.09;82.54;100378.84;5102996;28;20046;-80
2023/01/14 08:43:04;;;;;;;1.77;0.60;;;;;;;7.19;82.01;100375.19;5116611;28;20039;-80
2023/01/14 08:45:34;;;;;;;0.40;0.40;;;;;;;7.22;81.69;100364.72;5111713;28;20241;-80
2023/01/14 08:48:05;;;;;;;0.30;0.30;;;;;;;7.21;81.96;100362.97;5117796;28;20106;-80
2023/01/14 08:50:45;;;;;;;0.50;0.50;;;;;;;7.23;82.08;100349.91;5112486;28;20449;-81
2023/01/14 08:53:16;;;;;;;0.30;0.30;;;;;;;7.26;81.92;100349.84;5121104;28;20513;-83
2023/01/14 08:55:59;;;;;;;2.97;1.33;;;;;;;7.29;81.79;100346.31;5085060;28;20042;-82
2023/01/14 08:58:37;;;;;;;0.22;0.22;;;;;;;7.24;82.35;100336.81;5113468;28;20051;-82
2023/01/14 09:01:49;;;;;;;0.40;0.40;;;;;;;7.31;81.76;100321.91;5104223;28;20074;-81
2023/01/14 09:04:24;;;;;;;0.25;0.25;;;;;;;7.25;82.06;100312.44;5100088;28;20164;-82
2023/01/14 09:18:51;;;;;;;0.30;0.30;;;;;;;7.37;82.08;100277.41;5120619;28;20046;-82
2023/01/14 09:21:24;;;;;;;0.30;0.30;;;;;;;7.37;82.01;100268.72;5117477;28;20043;-81
2023/01/14 09:24:04;;;;;;;0.30;0.30;;;;;;;7.38;81.89;100260.00;5120042;28;20126;-81
2023/01/14 09:26:40;;;;;;;0.30;0.30;;;;;;;7.32;82.07;100249.66;5102006;29;20082;-82
2023/01/14 09:29:10;;;;;;;0.30;0.30;;;;;;;7.43;82.35;100252.06;5099033;28;20418;-82
2023/01/14 09:31:41;;;;;;;0.30;0.30;;;;;;;7.46;82.20;100241.53;5113308;28;20070;-81
2023/01/14 09:34:11;;;;;;;0.28;0.28;;;;;;;7.53;81.74;100241.38;5136143;28;20042;-82
2023/01/14 09:36:41;;;;;;;0.30;0.30;;;;;;;7.52;82.13;100231.84;5119492;28;20565;-83
2023/01/14 09:39:12;;;;;;;0.30;0.30;;;;;;;7.48;82.03;100232.78;5100334;28;20039;-82
2023/01/14 09:41:50;;;;;;;0.85;0.85;;;;;;;7.51;81.93;100216.22;5137293;28;20059;-81
2023/01/14 09:44:22;;;;;;;0.30;0.30;;;;;;;7.54;81.86;100217.00;5123337;28;20038;-81
2023/01/14 09:46:53;;;;;;;0.30;0.30;;;;;;;7.56;81.55;100209.97;5130153;28;20348;-80
2023/01/14 09:49:26;;;;;;;0.20;0.20;;;;;;;7.59;81.91;100187.31;5148689;28;20038;-82
2023/01/14 09:52:29;;;;;;;0.60;0.60;;;;;;;7.62;81.43;100182.88;5130818;28;20039;-83
2023/01/14 09:55:20;;;;;;;0.30;0.30;;;;;;;7.67;81.85;100185.38;5105286;28;20037;-81
2023/01/14 09:58:00;;;;;;;0.20;0.20;;;;;;;7.60;82.43;100175.97;5124259;28;20465;-82
2023/01/14 10:00:53;;;;;;;0.30;0.30;;;;;;;7.72;82.30;100175.69;5117406;28;20102;-82
2023/01/14 10:03:41;;;;;;;0.30;0.30;;;;;;;7.72;81.83;100165.25;5119812;28;20054;-82
2023/01/14 10:06:15;;;;;;;0.30;0.30;;;;;;;7.73;82.48;100153.88;5119765;28;20083;-81
2023/01/14 10:09:02;;;;;;;0.77;0.77;;;;;;;7.70;82.76;100143.53;5119147;23;20075;-83
2023/01/14 10:11:37;;;;;;;0.85;0.85;;;;;;;7.71;82.95;100132.19;5111100;28;20043;-83
2023/01/14 10:14:23;;;;;;;0.30;0.30;;;;;;;7.80;82.97;100142.41;5117038;28;20511;-84
2023/01/14 10:17:06;;;;;;;0.30;0.30;;;;;;;7.84;83.33;100137.97;5122436;28;20415;-84
2023/01/14 10:19:51;;;;;;;0.30;0.30;;;;;;;7.78;83.60;100133.75;5139109;28;20246;-83
2023/01/14 10:22:31;;;;;;;0.30;0.30;;;;;;;7.82;84.12;100139.75;5129080;28;20066;-83
2023/01/14 10:25:04;;;;;;;0.30;0.30;;;;;;;7.83;83.90;100137.09;5112992;28;20043;-83
2023/01/14 10:27:34;;;;;;;0.30;0.30;;;;;;;7.84;84.16;100117.91;5133000;28;20056;-85
2023/01/14 10:30:33;;;;;;;0.73;0.73;;;;;;;7.81;84.95;100112.75;5114168;28;20038;-84
2023/01/14 10:33:05;;;;;;;0.30;0.30;;;;;;;7.82;84.91;100088.38;5098691;28;20047;-83
2023/01/14 10:35:38;;;;;;;0.68;0.68;;;;;;;7.80;85.89;100090.19;5109969;28;20613;-81
2023/01/14 10:38:24;;;;;;;0.30;0.30;;;;;;;7.86;85.18;100089.13;5110336;29;20011;-82
2023/01/14 10:41:02;;;;;;;0.55;0.55;;;;;;;7.92;85.43;100091.63;5110018;28;20036;-81
2023/01/14 10:43:37;;;;;;;0.30;0.30;;;;;;;7.92;85.80;100081.16;5105518;29;20043;-81
2023/01/14 10:46:17;;;;;;;0.30;0.30;;;;;;;7.87;86.18;100086.50;5113486;28;20042;-80
2023/01/14 10:48:53;;;;;;;1.45;1.00;;;;;;;7.86;86.82;100090.00;5101505;29;20032;-82
2023/01/14 10:51:37;;;;;;;0.30;0.30;;;;;;;7.89;87.12;100062.94;5099501;28;20576;-80
2023/01/14 10:54:23;;;;;;;0.30;0.30;;;;;;;7.88;88.17;100066.47;5131358;28;20067;-82
2023/01/14 10:56:59;;;;;;;0.43;0.43;;;;;;;7.94;87.75;100065.44;5138645;28;20047;-82
2023/01/14 10:59:44;;;;;;;0.30;0.30;;;;;;;7.90;88.44;100043.78;5120229;28;20038;-81
2023/01/14 11:02:43;;;;;;;0.30;0.30;;;;;;;7.96;88.67;100032.31;5134058;28;20624;-82
2023/01/14 11:05:27;;;;;;;0.30;0.30;;;;;;;7.97;88.36;100011.34;5114828;28;20757;-82
2023/01/14 11:08:21;;;;;;;0.40;0.40;;;;;;;7.97;89.24;99994.84;5116245;28;20050;-81
2023/01/14 11:10:57;;;;;;;0.30;0.30;;;;;;;7.99;89.99;99982.56;5105036;28;20054;-82
2023/01/14 11:13:33;;;;;;;0.88;0.88;;;;;;;7.98;90.02;99973.00;5108369;28;20031;-82
2023/01/14 11:16:04;;;;;;;0.22;0.22;;;;;;;7.99;90.53;99956.44;5126754;28;20031;-81
2023/01/14 11:18:35;;;;;;;0.30;0.30;;;;;;;8.00;91.13;99950.31;5120597;28;20035;-80
2023/01/14 11:21:26;;;;;;;0.30;0.30;;;;;;;8.05;90.90;99943.22;5111665;28;20040;-83
2023/01/14 11:24:09;;;;;;;0.40;0.40;;;;;;;8.05;90.70;99938.00;5087071;29;20043;-81
2023/01/14 11:26:40;;;;;;;0.30;0.30;;;;;;;8.16;90.86;99935.06;5117600;28;20042;-82
2023/01/14 11:29:26;;;;;;;0.35;0.35;;;;;;;8.14;90.08;99932.47;5118793;28;20035;-82
2023/01/14 11:32:11;;;;;;;0.80;0.65;;;;;;;8.14;91.19;99916.81;5113282;28;20043;-81
2023/01/14 11:34:49;;;;;;;1.48;0.68;;;;;;;8.19;90.68;99914.94;5114941;28;20039;-81
2023/01/14 11:37:23;;;;;;;0.30;0.30;;;;;;;8.19;90.98;99903.59;5114197;28;20445;-80
2023/01/14 11:39:59;;;;;;;0.82;0.68;;;;;;;8.18;91.54;99897.53;5119250;28;20031;-81
2023/01/14 11:42:31;;;;;;;0.30;0.30;;;;;;;8.15;92.15;99871.47;5096439;29;20042;-82
2023/01/14 11:45:11;;;;;;;0.30;0.30;;;;;;;8.15;91.81;99874.09;5100217;28;20038;-80
2023/01/14 11:48:20;;;;;;;0.30;0.30;;;;;;;8.26;91.23;99849.41;5110307;28;20071;-82
2023/01/14 11:51:18;;;;;;;0.20;0.20;;;;;;;8.23;91.55;99845.13;5111114;29;20054;-81
2023/01/14 11:53:51;;;;;;;0.30;0.30;;;;;;;8.25;91.31;99848.56;5116703;28;20038;-82
2023/01/14 11:56:35;;;;;;;0.30;0.30;;;;;;;8.24;91.50;99844.22;5099652;28;20520;-81
2023/01/14 11:59:19;;;;;;;;;;;;;;;8.26;91.81;99850.28;5129605;28;20035;-82
2023/01/14 12:01:53;;;;;;;0.50;0.50;;;;;;;8.28;91.55;99840.59;5113536;28;20279;-81
2023/01/14 12:04:32;;;;;;;0.52;0.52;;;;;;;8.28;91.33;99830.13;5115490;29;20694;-81
2023/01/14 12:07:06;;;;;;;0.73;0.73;;;;;;;8.30;91.64;99830.13;5116266;28;20040;-81
2023/01/14 12:09:47;;;;;;;0.30;0.30;;;;;;;8.27;91.76;99817.13;5116520;29;20043;-82
2023/01/14 12:12:24;;;;;;;0.40;0.40;;;;;;;8.26;92.23;99804.97;5123636;28;20043;-82
2023/01/14 12:17:56;;;;;;;0.30;0.30;;;;;;;8.34;91.94;99788.16;5110804;29;20042;-82
2023/01/14 12:20:30;;;;;;;0.35;0.35;;;;;;;8.36;91.48;99788.09;5103738;28;20530;-83
2023/01/14 12:23:09;;;;;;;0.30;0.30;;;;;;;8.37;91.77;99771.50;5103610;28;20070;-82
2023/01/14 12:25:47;;;;;;;0.40;0.40;;;;;;;8.33;91.75;99775.09;5130549;28;20035;-82
2023/01/14 12:28:31;;;;;;;0.20;0.20;;;;;;;8.39;91.36;99774.06;5118868;28;20445;-82
2023/01/14 12:31:15;;;;;;;0.30;0.30;;;;;;;8.40;91.41;99766.16;5115653;28;20058;-82
2023/01/14 12:34:02;;;;;;;0.30;0.30;;;;;;;8.36;92.45;99764.56;5105540;28;20607;-82
2023/01/14 12:36:43;;;;;;;0.30;0.30;;;;;;;8.41;91.58;99752.19;5101039;28;20529;-82
2023/01/14 12:45:44;;;;;;;0.30;0.30;;;;;;;8.42;92.15;99729.53;5138631;28;20050;-82
2023/01/14 12:48:25;;;;;;;0.20;0.20;;;;;;;8.50;91.53;99710.06;5107745;28;20031;-82